Time;durP1;ratioP1;P1;durP2;ratioP2;P2;SDS_P1;SDS_P2;PMS_P1;PMS_P2;Temp;Humidity;BMP_temperature;BMP_pressure;BME280_temperature;BME280_humidity;BME280_pressure;Samples;Min_cycle;Max_cycle;Signal;HPM_P1;HPM_P2
2023/07/07 00:01:56;;;;;;;7.43;4.22;;;14.10;99.90;;;;;;4965133;28;20069;-57
2023/07/07 00:04:22;;;;;;;5.45;3.97;;;14.00;99.90;;;;;;4963407;28;20395;-56
2023/07/07 00:06:48;;;;;;;6.97;4.28;;;13.90;99.90;;;;;;4964153;28;20043;-59
2023/07/07 00:09:14;;;;;;;5.20;3.67;;;14.10;99.90;;;;;;4964571;28;20046;-53
2023/07/07 00:11:39;;;;;;;5.60;3.88;;;14.10;99.90;;;;;;4963108;28;20465;-53
2023/07/07 00:14:05;;;;;;;8.43;3.95;;;14.10;99.90;;;;;;4964422;28;20047;-58
2023/07/07 00:16:31;;;;;;;6.38;3.97;;;14.10;99.90;;;;;;4963617;28;20121;-58
2023/07/07 00:18:58;;;;;;;5.63;4.40;;;14.00;99.90;;;;;;4964047;28;20526;-57
2023/07/07 00:21:25;;;;;;;7.22;4.43;;;14.10;99.90;;;;;;4964143;28;20110;-54
2023/07/07 00:23:59;;;;;;;8.07;4.70;;;14.00;99.90;;;;;;4963953;28;20126;-59
2023/07/07 00:26:25;;;;;;;6.00;4.28;;;14.00;99.90;;;;;;4964093;28;20044;-53
2023/07/07 00:28:51;;;;;;;6.00;4.40;;;14.00;99.90;;;;;;4963855;28;20109;-57
2023/07/07 00:31:22;;;;;;;7.53;5.20;;;14.10;99.90;;;;;;4964522;28;20410;-59
2023/07/07 00:33:48;;;;;;;8.02;5.50;;;14.00;99.90;;;;;;4964483;28;20505;-55
2023/07/07 00:36:13;;;;;;;7.03;5.40;;;13.90;99.90;;;;;;4964345;28;20085;-54
2023/07/07 00:38:39;;;;;;;10.88;6.22;;;13.90;99.90;;;;;;4963427;28;20042;-57
2023/07/07 00:41:07;;;;;;;10.05;6.70;;;14.10;99.90;;;;;;4964462;28;20129;-58
2023/07/07 00:43:33;;;;;;;10.63;7.22;;;14.00;99.90;;;;;;4962141;28;20093;-54
2023/07/07 00:45:59;;;;;;;9.63;7.32;;;13.90;99.90;;;;;;4963718;28;20054;-53
2023/07/07 00:48:29;;;;;;;10.48;7.90;;;13.90;99.90;;;;;;4963701;28;20518;-59
2023/07/07 00:51:07;;;;;;;10.18;7.90;;;13.90;99.90;;;;;;4963925;28;20055;-56
2023/07/07 00:53:34;;;;;;;12.68;8.38;;;13.90;99.90;;;;;;4963423;28;20046;-56
2023/07/07 00:56:03;;;;;;;11.45;8.30;;;13.90;99.90;;;;;;4963968;28;20081;-55
2023/07/07 00:58:31;;;;;;;11.70;8.55;;;13.90;99.90;;;;;;4962946;28;20061;-57
2023/07/07 01:01:05;;;;;;;9.85;8.10;;;13.90;99.90;;;;;;4964119;28;20043;-57
2023/07/07 01:03:39;;;;;;;12.68;8.50;;;13.90;99.90;;;;;;4964030;28;20445;-62
2023/07/07 01:06:08;;;;;;;12.88;8.32;;;13.90;99.90;;;;;;4964373;28;20065;-56
2023/07/07 01:08:36;;;;;;;11.38;8.00;;;13.80;99.90;;;;;;4963294;28;20042;-58
2023/07/07 01:11:01;;;;;;;10.27;8.45;;;13.80;99.90;;;;;;4963326;28;20530;-55
2023/07/07 01:13:27;;;;;;;13.00;9.13;;;13.80;99.90;;;;;;4962389;28;20073;-52
2023/07/07 01:16:06;;;;;;;14.48;9.00;;;13.80;99.90;;;;;;4962940;28;20046;-59
2023/07/07 01:18:45;;;;;;;11.70;9.10;;;13.80;99.90;;;;;;4982761;28;20262;-58
2023/07/07 01:21:29;;;;;;;12.80;9.05;;;13.80;99.90;;;;;;4982300;28;20057;-57
2023/07/07 01:24:29;;;;;;;13.18;8.75;;;13.80;99.90;;;;;;4982578;28;20046;-56
2023/07/07 01:27:20;;;;;;;11.25;8.85;;;13.80;99.90;;;;;;4982551;28;20097;-55
2023/07/07 01:30:23;;;;;;;13.13;9.43;;;13.80;99.90;;;;;;4980799;28;21329;-52
2023/07/07 01:32:50;;;;;;;11.27;9.43;;;13.80;99.90;;;;;;4982675;28;20437;-58
2023/07/07 01:35:19;;;;;;;15.27;9.50;;;13.80;99.90;;;;;;4974021;28;20053;-53
2023/07/07 01:37:57;;;;;;;12.50;9.52;;;13.70;99.90;;;;;;4965778;28;20027;-56
2023/07/07 01:40:45;;;;;;;10.80;9.40;;;13.70;99.90;;;;;;4962269;28;20235;-56
2023/07/07 01:43:21;;;;;;;13.07;9.77;;;13.70;99.90;;;;;;4961330;28;20054;-55
2023/07/07 01:46:10;;;;;;;11.90;9.23;;;13.70;99.90;;;;;;4962163;28;20035;-59
2023/07/07 01:49:02;;;;;;;11.70;10.02;;;13.70;99.90;;;;;;4962418;28;20042;-58
2023/07/07 01:51:33;;;;;;;13.73;9.80;;;13.60;99.90;;;;;;4962775;28;20489;-52
2023/07/07 01:54:02;;;;;;;11.77;10.10;;;13.60;99.90;;;;;;4962732;28;20038;-58
2023/07/07 01:56:31;;;;;;;15.80;9.98;;;13.60;99.90;;;;;;4961761;28;20054;-52
2023/07/07 01:58:57;;;;;;;14.73;9.82;;;13.60;99.90;;;;;;4961807;28;20418;-58
2023/07/07 02:01:22;;;;;;;12.85;10.23;;;13.60;99.90;;;;;;4962920;28;20050;-59
2023/07/07 02:03:48;;;;;;;13.20;10.00;;;13.60;99.90;;;;;;4961987;28;20051;-52
2023/07/07 02:06:14;;;;;;;11.43;9.32;;;13.70;99.90;;;;;;4962221;28;20134;-53
2023/07/07 02:08:40;;;;;;;13.13;9.75;;;13.70;99.90;;;;;;4961471;28;20042;-58
2023/07/07 02:11:05;;;;;;;14.05;10.30;;;13.70;99.90;;;;;;4962495;28;20046;-58
2023/07/07 02:13:32;;;;;;;12.82;10.32;;;13.60;99.90;;;;;;4961144;28;20130;-55
2023/07/07 02:15:58;;;;;;;12.32;9.27;;;13.60;99.90;;;;;;4962340;28;20105;-50
2023/07/07 02:18:26;;;;;;;15.20;10.85;;;13.50;99.90;;;;;;4962476;28;20510;-53
2023/07/07 02:20:52;;;;;;;11.73;10.45;;;13.60;99.90;;;;;;4961902;28;20136;-57
2023/07/07 02:23:17;;;;;;;12.60;10.63;;;13.50;99.90;;;;;;4962478;28;20042;-51
2023/07/07 02:25:43;;;;;;;12.48;10.55;;;13.50;99.90;;;;;;4962890;28;20382;-55
2023/07/07 02:28:08;;;;;;;14.60;10.50;;;13.60;99.90;;;;;;4961291;28;20050;-52
2023/07/07 02:30:35;;;;;;;16.75;11.00;;;13.50;99.90;;;;;;4962038;28;20051;-58
2023/07/07 02:33:01;;;;;;;14.88;11.60;;;13.50;99.90;;;;;;4962465;28;20042;-50
2023/07/07 02:35:26;;;;;;;15.85;11.02;;;13.50;99.90;;;;;;4962237;28;20449;-55
2023/07/07 02:37:52;;;;;;;15.98;11.70;;;13.60;99.90;;;;;;4961608;28;20074;-55
2023/07/07 02:40:18;;;;;;;15.55;12.27;;;13.40;99.90;;;;;;4962617;28;20125;-55
2023/07/07 02:42:46;;;;;;;16.20;11.85;;;13.50;99.90;;;;;;4966857;28;20430;-58
2023/07/07 02:45:11;;;;;;;13.98;12.32;;;13.50;99.90;;;;;;4966004;28;20064;-55
2023/07/07 02:47:37;;;;;;;15.13;13.15;;;13.40;99.90;;;;;;4965410;28;20425;-56
2023/07/07 02:50:03;;;;;;;18.90;12.93;;;13.50;99.90;;;;;;4965791;28;20043;-53
2023/07/07 02:52:28;;;;;;;19.10;12.63;;;13.50;99.90;;;;;;4965916;28;20039;-54
2023/07/07 02:54:54;;;;;;;16.10;12.65;;;13.40;99.90;;;;;;4965501;28;20039;-58
2023/07/07 02:57:19;;;;;;;17.90;13.40;;;13.40;99.90;;;;;;4965912;28;20042;-56
2023/07/07 02:59:45;;;;;;;15.50;12.93;;;13.40;99.90;;;;;;4965567;28;20046;-56
2023/07/07 03:02:11;;;;;;;15.68;13.40;;;13.30;99.90;;;;;;4965989;28;20049;-55
2023/07/07 03:04:36;;;;;;;19.48;13.73;;;13.30;99.90;;;;;;4965317;28;20438;-56
2023/07/07 03:07:02;;;;;;;17.58;14.25;;;13.30;99.90;;;;;;4965701;28;20328;-58
2023/07/07 03:09:28;;;;;;;18.15;14.18;;;13.30;99.90;;;;;;4965425;28;20043;-53
2023/07/07 03:11:54;;;;;;;21.20;14.95;;;13.30;99.90;;;;;;4964693;28;20129;-54
2023/07/07 03:14:20;;;;;;;18.73;14.35;;;13.30;99.90;;;;;;4964856;28;20385;-52
2023/07/07 03:16:51;;;;;;;19.45;14.90;;;13.30;99.90;;;;;;4965564;28;20291;-59
2023/07/07 03:19:17;;;;;;;19.00;14.68;;;13.30;99.90;;;;;;4964356;28;20047;-56
2023/07/07 03:21:42;;;;;;;19.02;15.15;;;13.20;99.90;;;;;;4965400;28;20355;-54
2023/07/07 03:24:08;;;;;;;16.55;14.45;;;13.50;99.90;;;;;;4965597;28;20251;-58
2023/07/07 03:26:35;;;;;;;22.08;15.05;;;13.30;99.90;;;;;;4965478;28;20050;-57
2023/07/07 03:29:01;;;;;;;18.67;15.07;;;13.30;99.90;;;;;;4964293;28;20113;-58
2023/07/07 03:31:30;;;;;;;17.38;15.35;;;13.20;99.90;;;;;;4965376;28;20462;-55
2023/07/07 03:34:02;;;;;;;19.90;14.57;;;13.20;99.90;;;;;;4965538;28;20061;-52
2023/07/07 03:36:29;;;;;;;17.15;14.77;;;13.30;99.90;;;;;;4964700;28;20047;-55
2023/07/07 03:38:55;;;;;;;17.98;15.07;;;13.30;99.90;;;;;;4965455;28;20093;-57
2023/07/07 03:41:23;;;;;;;19.73;14.95;;;13.30;99.90;;;;;;4964087;28;20039;-55
2023/07/07 03:43:50;;;;;;;17.60;15.23;;;13.40;99.90;;;;;;4963840;28;20049;-56
2023/07/07 03:46:19;;;;;;;19.23;15.95;;;13.30;99.90;;;;;;4965468;28;20043;-50
2023/07/07 03:48:46;;;;;;;19.90;16.40;;;13.40;99.90;;;;;;4965722;28;20043;-58
2023/07/07 03:51:13;;;;;;;20.95;15.18;;;13.50;99.90;;;;;;4964340;28;20081;-53
2023/07/07 03:53:39;;;;;;;20.13;16.52;;;13.50;99.90;;;;;;4963811;28;20097;-52
2023/07/07 03:56:05;;;;;;;17.75;15.63;;;13.40;99.90;;;;;;4964936;28;20399;-59
2023/07/07 03:58:31;;;;;;;19.05;15.27;;;13.50;99.90;;;;;;4964156;28;20153;-58
2023/07/07 04:01:09;;;;;;;19.85;14.63;;;13.50;99.90;;;;;;4964194;28;20035;-58
2023/07/07 04:03:35;;;;;;;19.33;16.05;;;13.50;99.90;;;;;;4965107;28;20105;-57
2023/07/07 04:06:01;;;;;;;17.25;14.73;;;13.40;99.90;;;;;;4964497;28;20078;-52
2023/07/07 04:08:27;;;;;;;18.83;14.70;;;13.40;99.90;;;;;;4963872;28;20089;-54
2023/07/07 04:11:06;;;;;;;19.52;15.23;;;13.40;99.90;;;;;;4964575;28;20359;-55
2023/07/07 04:13:35;;;;;;;23.25;16.70;;;13.50;99.90;;;;;;4963755;28;20074;-52
2023/07/07 04:16:08;;;;;;;19.30;15.55;;;13.50;99.90;;;;;;4964614;28;20066;-55
2023/07/07 04:18:34;;;;;;;18.20;14.70;;;13.60;99.90;;;;;;4964609;28;20046;-58
2023/07/07 04:21:09;;;;;;;24.73;14.65;;;13.60;99.90;;;;;;4964496;28;20054;-54
2023/07/07 04:23:35;;;;;;;;;;;13.70;99.90;;;;;;4965138;28;20264;-54
2023/07/07 04:26:01;;;;;;;19.42;14.70;;;13.70;99.90;;;;;;4963320;28;20304;-57
2023/07/07 04:28:29;;;;;;;28.02;14.85;;;13.70;99.90;;;;;;4963110;28;20351;-53
2023/07/07 04:30:56;;;;;;;20.13;13.93;;;13.70;99.90;;;;;;4964419;28;20126;-57
2023/07/07 04:33:24;;;;;;;20.00;15.18;;;13.70;99.90;;;;;;4964417;28;20050;-57
2023/07/07 04:35:54;;;;;;;18.73;15.30;;;13.80;99.90;;;;;;4964428;28;20466;-56
2023/07/07 04:38:23;;;;;;;18.80;14.57;;;13.80;99.90;;;;;;4964548;28;20342;-57
2023/07/07 04:40:49;;;;;;;20.70;15.57;;;13.90;99.90;;;;;;4964606;28;20043;-54
2023/07/07 04:43:14;;;;;;;18.88;14.70;;;14.00;99.90;;;;;;4963650;28;20545;-52
2023/07/07 04:45:40;;;;;;;19.15;15.05;;;14.10;99.90;;;;;;4963751;28;20047;-54
2023/07/07 04:48:06;;;;;;;19.77;14.43;;;14.10;99.90;;;;;;4964105;28;20469;-58
2023/07/07 04:50:33;;;;;;;18.88;14.80;;;14.20;99.90;;;;;;4964183;28;20129;-56
2023/07/07 04:52:58;;;;;;;17.25;13.98;;;14.30;99.90;;;;;;4963074;28;20043;-54
2023/07/07 04:55:24;;;;;;;20.92;14.45;;;14.40;99.90;;;;;;4963986;28;20478;-54
2023/07/07 04:57:50;;;;;;;20.40;12.82;;;14.60;99.90;;;;;;4961998;28;20043;-55
2023/07/07 05:00:16;;;;;;;16.75;12.52;;;15.00;99.90;;;;;;4963540;28;20121;-54
2023/07/07 05:02:41;;;;;;;20.02;13.65;;;15.30;99.90;;;;;;4961836;28;20234;-58
2023/07/07 05:05:07;;;;;;;213.60;198.18;;;15.60;99.90;;;;;;4963396;28;20413;-57
2023/07/07 05:07:33;;;;;;;908.83;812.07;;;15.70;99.90;;;;;;4963278;28;20050;-54
2023/07/07 05:09:58;;;;;;;25.67;22.90;;;15.80;99.90;;;;;;4962623;28;20133;-52
2023/07/07 05:12:24;;;;;;;15.68;12.07;;;15.90;99.90;;;;;;4963257;28;20090;-55
2023/07/07 05:14:52;;;;;;;54.50;24.52;;;16.00;99.90;;;;;;4961520;28;20066;-58
2023/07/07 05:17:17;;;;;;;16.73;12.75;;;16.10;99.90;;;;;;4963235;28;20449;-54
2023/07/07 05:19:43;;;;;;;18.95;12.13;;;16.20;99.90;;;;;;4962521;28;20045;-51
2023/07/07 05:22:08;;;;;;;16.23;12.23;;;16.30;99.90;;;;;;4963347;28;20335;-58
2023/07/07 05:24:35;;;;;;;13.25;11.85;;;16.40;99.90;;;;;;4963384;28;20038;-57
2023/07/07 05:27:01;;;;;;;14.77;11.90;;;16.50;99.90;;;;;;4962302;28;20146;-56
2023/07/07 05:29:26;;;;;;;16.85;12.00;;;16.70;99.90;;;;;;4961416;28;20519;-51
2023/07/07 05:31:52;;;;;;;15.75;11.95;;;16.80;99.90;;;;;;4963159;28;20477;-55
2023/07/07 05:34:19;;;;;;;14.55;11.30;;;17.00;99.90;;;;;;4963224;28;20073;-57
2023/07/07 05:36:44;;;;;;;14.95;11.40;;;17.20;99.90;;;;;;4962753;28;20035;-58
2023/07/07 05:39:10;;;;;;;13.27;11.20;;;17.40;99.90;;;;;;4963151;28;20113;-55
2023/07/07 05:41:36;;;;;;;17.73;11.32;;;17.60;99.90;;;;;;4962948;28;20114;-52
2023/07/07 05:44:01;;;;;;;14.38;11.30;;;17.80;99.90;;;;;;4967766;28;20121;-52
2023/07/07 05:46:27;;;;;;;19.25;11.48;;;17.90;99.90;;;;;;4963006;28;20533;-57
2023/07/07 05:48:53;;;;;;;15.80;10.50;;;18.10;99.90;;;;;;4963279;28;20089;-60
2023/07/07 05:51:21;;;;;;;15.45;10.93;;;18.40;99.90;;;;;;4962921;28;20058;-55
2023/07/07 05:53:47;;;;;;;12.75;10.15;;;18.50;99.90;;;;;;4961884;28;20403;-56
2023/07/07 05:56:20;;;;;;;14.05;9.70;;;18.80;99.90;;;;;;4963039;28;20077;-52
2023/07/07 05:58:45;;;;;;;17.10;10.30;;;19.00;99.90;;;;;;4961739;28;20140;-54
2023/07/07 06:01:13;;;;;;;23.27;12.18;;;19.20;99.90;;;;;;4970841;28;20212;-57
2023/07/07 06:03:39;;;;;;;16.05;10.15;;;19.50;99.90;;;;;;4982077;28;20081;-58
2023/07/07 06:06:06;;;;;;;13.57;9.77;;;19.60;99.90;;;;;;4981938;28;20108;-54
2023/07/07 06:08:32;;;;;;;15.57;10.13;;;19.90;99.90;;;;;;4963780;28;20049;-52
2023/07/07 06:10:58;;;;;;;15.68;9.02;;;20.10;99.90;;;;;;4981547;28;20590;-52
2023/07/07 06:13:24;;;;;;;16.77;9.13;;;20.10;99.90;;;;;;4981036;28;20046;-59
2023/07/07 06:15:52;;;;;;;13.23;9.07;;;20.30;99.90;;;;;;4980609;28;20129;-56
2023/07/07 06:18:18;;;;;;;13.73;8.70;;;21.20;99.90;;;;;;4980443;28;20054;-53
2023/07/07 06:20:52;;;;;;;10.77;8.23;;;20.50;99.90;;;;;;4980703;28;20078;-58
2023/07/07 06:23:18;;;;;;;14.88;8.88;;;20.40;99.90;;;;;;4981106;28;20034;-52
2023/07/07 06:25:44;;;;;;;12.77;8.70;;;20.30;99.90;;;;;;4979438;28;20061;-56
2023/07/07 06:28:10;;;;;;;11.18;8.70;;;20.30;99.90;;;;;;4980386;28;20047;-57
2023/07/07 06:30:35;;;;;;;9.38;7.43;;;20.60;99.90;;;;;;4980499;28;20050;-60
2023/07/07 06:33:02;;;;;;;12.80;7.93;;;20.60;99.90;;;;;;4980359;28;20042;-49
2023/07/07 06:35:29;;;;;;;10.10;7.85;;;20.80;99.90;;;;;;4981205;28;20058;-52
2023/07/07 06:37:54;;;;;;;13.05;8.52;;;20.90;99.90;;;;;;4981644;28;20089;-58
2023/07/07 06:40:21;;;;;;;10.60;7.97;;;21.00;99.90;;;;;;4981423;28;20070;-57
2023/07/07 06:42:48;;;;;;;12.30;8.23;;;20.90;99.90;;;;;;4979845;28;20050;-58
2023/07/07 06:45:14;;;;;;;12.05;7.80;;;21.00;99.90;;;;;;4966868;28;20039;-60
2023/07/07 06:47:39;;;;;;;10.57;7.90;;;21.20;99.60;;;;;;4960467;28;20050;-62
2023/07/07 06:50:05;;;;;;;11.70;8.07;;;21.20;98.90;;;;;;4960021;28;20058;-62
2023/07/07 06:52:31;;;;;;;10.15;7.20;;;21.30;99.00;;;;;;4961407;28;20129;-60
2023/07/07 06:54:57;;;;;;;10.25;7.82;;;21.60;99.00;;;;;;4962194;28;20125;-58
2023/07/07 06:57:23;;;;;;;11.35;7.30;;;21.90;98.40;;;;;;4961341;28;20043;-59
2023/07/07 06:59:49;;;;;;;10.48;6.93;;;22.20;97.70;;;;;;4961433;28;20053;-60
2023/07/07 07:02:14;;;;;;;8.27;6.28;;;22.40;97.40;;;;;;4962888;28;20050;-57
2023/07/07 07:04:40;;;;;;;10.27;7.72;;;22.50;97.10;;;;;;4964226;28;20417;-59
2023/07/07 07:07:09;;;;;;;9.95;6.85;;;22.60;97.00;;;;;;4979729;28;20037;-56
2023/07/07 07:09:34;;;;;;;9.75;6.07;;;22.50;96.50;;;;;;4981388;28;20038;-59
2023/07/07 07:12:00;;;;;;;12.95;7.03;;;22.50;96.70;;;;;;4981501;28;20067;-59
2023/07/07 07:14:26;;;;;;;11.00;7.20;;;22.60;97.00;;;;;;4973671;28;20409;-59
2023/07/07 07:16:51;;;;;;;10.77;6.85;;;22.40;96.80;;;;;;4961309;28;20585;-58
2023/07/07 07:19:17;;;;;;;9.77;6.35;;;22.50;96.90;;;;;;4961327;28;20081;-55
2023/07/07 07:21:42;;;;;;;9.85;6.32;;;22.70;96.90;;;;;;4963673;28;20047;-59
2023/07/07 07:24:08;;;;;;;9.52;5.68;;;22.50;96.50;;;;;;4968315;28;20043;-58
2023/07/07 07:26:34;;;;;;;9.07;6.20;;;22.70;96.80;;;;;;4971513;28;20054;-58
2023/07/07 07:28:59;;;;;;;8.77;5.80;;;22.60;96.20;;;;;;4973228;28;20433;-58
2023/07/07 07:31:26;;;;;;;7.90;5.78;;;22.60;96.20;;;;;;4967065;28;20097;-58
2023/07/07 07:33:53;;;;;;;15.25;5.63;;;22.50;95.90;;;;;;4965665;28;20046;-62
2023/07/07 07:36:19;;;;;;;10.23;5.30;;;22.40;95.90;;;;;;4980790;28;20039;-58
2023/07/07 07:38:45;;;;;;;10.07;5.38;;;22.30;96.00;;;;;;4984625;28;20105;-58
2023/07/07 07:41:11;;;;;;;7.70;4.60;;;22.20;95.80;;;;;;4983808;28;20104;-58
2023/07/07 07:43:36;;;;;;;8.43;4.68;;;22.30;96.20;;;;;;4984183;28;20034;-60
2023/07/07 07:46:02;;;;;;;7.18;4.70;;;22.20;95.40;;;;;;4984908;28;20342;-59
2023/07/07 07:48:27;;;;;;;8.95;4.85;;;22.30;95.30;;;;;;4984448;28;20505;-58
2023/07/07 07:50:53;;;;;;;8.40;4.30;;;22.50;95.50;;;;;;4982267;28;20058;-58
2023/07/07 07:53:19;;;;;;;7.28;4.03;;;22.50;95.50;;;;;;4977069;28;20121;-55
2023/07/07 07:55:44;;;;;;;6.70;3.33;;;22.50;95.00;;;;;;4965213;28;20078;-56
2023/07/07 07:58:11;;;;;;;10.18;3.75;;;22.40;95.00;;;;;;4963735;28;20122;-55
2023/07/07 08:00:36;;;;;;;587.72;453.90;;;22.30;94.60;;;;;;4964704;28;20405;-56
2023/07/07 08:03:02;;;;;;;8.05;3.92;;;22.40;94.80;;;;;;4964946;28;20049;-55
2023/07/07 08:05:27;;;;;;;5.97;3.78;;;22.40;94.80;;;;;;4964124;28;20126;-58
2023/07/07 08:07:53;;;;;;;9.35;4.55;;;22.40;94.90;;;;;;4963835;28;20042;-58
2023/07/07 08:10:19;;;;;;;9.77;4.43;;;22.60;94.50;;;;;;4964573;28;20102;-60
2023/07/07 08:12:45;;;;;;;8.55;3.83;;;22.70;94.50;;;;;;4964006;28;20158;-60
2023/07/07 08:15:11;;;;;;;7.85;3.38;;;22.70;94.20;;;;;;4964168;28;20051;-58
2023/07/07 08:17:37;;;;;;;6.47;3.33;;;22.90;94.60;;;;;;4964632;28;20401;-58
2023/07/07 08:20:05;;;;;;;8.13;3.70;;;22.90;93.70;;;;;;4963724;28;20324;-58
2023/07/07 08:22:31;;;;;;;5.95;3.65;;;22.90;93.60;;;;;;4964675;28;20062;-60
2023/07/07 08:24:58;;;;;;;10.43;3.47;;;22.90;93.70;;;;;;4963825;28;20043;-61
2023/07/07 08:27:26;;;;;;;5.57;3.33;;;23.00;94.10;;;;;;4963773;28;20121;-59
2023/07/07 08:29:52;;;;;;;5.50;2.95;;;23.10;93.30;;;;;;4962936;28;20046;-61
2023/07/07 08:32:21;;;;;;;6.53;2.50;;;23.20;92.90;;;;;;4963654;28;20462;-61
2023/07/07 08:34:51;;;;;;;5.65;3.00;;;23.20;92.70;;;;;;4963736;28;20047;-59
2023/07/07 08:37:18;;;;;;;5.97;3.20;;;23.30;92.70;;;;;;4964244;28;20053;-61
2023/07/07 08:39:44;;;;;;;6.60;2.97;;;23.30;92.20;;;;;;4962871;28;20129;-58
2023/07/07 08:42:22;;;;;;;6.55;3.00;;;23.30;92.70;;;;;;4961938;28;20109;-58
2023/07/07 08:44:48;;;;;;;5.93;2.90;;;23.50;92.70;;;;;;4963843;28;20481;-58
2023/07/07 08:47:43;;;;;;;11.48;3.20;;;23.70;91.50;;;;;;4962156;28;20316;-61
2023/07/07 08:50:26;;;;;;;9.00;2.80;;;23.60;92.10;;;;;;4963850;28;20047;-60
2023/07/07 08:53:09;;;;;;;4.57;2.30;;;23.60;91.80;;;;;;4962455;28;20178;-61
2023/07/07 08:55:51;;;;;;;7.25;2.97;;;23.70;90.70;;;;;;4963346;28;20046;-58
2023/07/07 08:58:34;;;;;;;8.27;2.75;;;23.90;90.60;;;;;;4962843;28;20133;-58
2023/07/07 09:01:14;;;;;;;4.18;2.17;;;24.00;91.30;;;;;;4963054;28;20069;-61
2023/07/07 09:04:10;;;;;;;4.72;2.47;;;24.10;90.40;;;;;;4963509;28;20046;-61
2023/07/07 09:06:56;;;;;;;5.88;2.40;;;24.30;88.50;;;;;;4963772;28;20042;-61
2023/07/07 09:09:30;;;;;;;9.45;2.95;;;24.40;87.70;;;;;;4962719;28;20414;-58
2023/07/07 09:11:59;;;;;;;;;;;24.50;86.00;;;;;;4963149;28;20493;-58
2023/07/07 09:14:26;;;;;;;4.50;2.08;;;24.50;84.50;;;;;;4961981;28;20400;-60
2023/07/07 09:16:59;;;;;;;6.85;2.35;;;24.50;85.30;;;;;;4962783;28;20541;-59
2023/07/07 09:19:35;;;;;;;3.97;2.13;;;24.60;85.40;;;;;;4963383;28;20058;-59
2023/07/07 09:22:18;;;;;;;4.40;2.13;;;24.70;82.40;;;;;;4961867;28;20054;-55
2023/07/07 09:24:52;;;;;;;7.43;2.47;;;24.60;84.40;;;;;;4963771;28;20434;-61
2023/07/07 09:27:27;;;;;;;4.43;2.03;;;24.80;84.90;;;;;;4962473;28;20101;-58
2023/07/07 09:30:02;;;;;;;7.50;2.30;;;24.80;84.10;;;;;;4963322;28;20047;-58
2023/07/07 09:32:27;;;;;;;5.22;2.40;;;25.00;85.20;;;;;;4963157;28;20038;-60
2023/07/07 09:34:53;;;;;;;5.57;2.33;;;25.10;84.60;;;;;;4962220;28;20039;-55
2023/07/07 09:37:19;;;;;;;4.20;2.22;;;25.20;84.90;;;;;;4962712;28;20065;-57
2023/07/07 09:40:04;;;;;;;6.40;2.40;;;25.20;84.30;;;;;;4963323;28;20046;-60
2023/07/07 09:42:47;;;;;;;4.40;2.20;;;25.20;86.10;;;;;;4961996;28;20050;-56
2023/07/07 09:45:28;;;;;;;4.85;2.60;;;25.30;85.70;;;;;;4962924;28;20375;-53
2023/07/07 09:48:16;;;;;;;4.28;2.25;;;25.40;85.60;;;;;;4962017;28;20043;-53
2023/07/07 09:51:03;;;;;;;3.80;2.40;;;25.70;86.10;;;;;;4961427;28;20410;-52
2023/07/07 09:53:35;;;;;;;5.75;2.55;;;25.70;84.40;;;;;;4962817;28;20260;-60
2023/07/07 09:56:02;;;;;;;5.03;2.53;;;25.60;83.60;;;;;;4962493;28;20043;-50
2023/07/07 09:58:40;;;;;;;4.03;2.20;;;25.60;83.70;;;;;;4961401;28;20743;-54
2023/07/07 10:01:07;;;;;;;5.15;2.30;;;25.60;85.00;;;;;;4961231;28;20457;-54
2023/07/07 10:03:37;;;;;;;5.05;2.25;;;25.70;84.80;;;;;;4962400;28;20103;-55
2023/07/07 10:06:07;;;;;;;5.15;2.30;;;25.90;85.40;;;;;;4962407;28;20086;-53
2023/07/07 10:08:32;;;;;;;3.50;2.10;;;26.20;85.40;;;;;;4962215;28;20078;-53
2023/07/07 10:11:20;;;;;;;4.82;2.28;;;26.50;85.00;;;;;;4962562;28;20053;-56
2023/07/07 10:13:51;;;;;;;6.88;2.60;;;26.80;83.50;;;;;;4961977;28;20426;-54
2023/07/07 10:16:32;;;;;;;6.32;2.50;;;26.80;83.20;;;;;;4962331;28;20055;-57
2023/07/07 10:19:00;;;;;;;5.32;2.42;;;26.80;82.30;;;;;;4962149;28;20047;-48
2023/07/07 10:21:27;;;;;;;5.05;2.08;;;26.60;82.40;;;;;;4962776;28;20109;-53
2023/07/07 10:23:53;;;;;;;6.00;2.22;;;26.50;82.20;;;;;;4960627;28;20042;-47
2023/07/07 10:26:19;;;;;;;3.90;2.40;;;26.40;81.40;;;;;;4962699;28;20050;-56
2023/07/07 10:28:47;;;;;;;5.03;2.22;;;26.30;80.90;;;;;;4961533;28;20047;-51
2023/07/07 10:31:14;;;;;;;5.05;2.15;;;26.20;81.00;;;;;;4960847;28;20043;-55
2023/07/07 10:33:41;;;;;;;5.03;2.40;;;26.10;82.60;;;;;;4962439;28;20042;-55
2023/07/07 10:36:18;;;;;;;3.78;2.20;;;26.40;83.50;;;;;;4962382;28;20047;-53
2023/07/07 10:38:47;;;;;;;5.78;2.35;;;26.80;84.00;;;;;;4961391;28;20509;-55
2023/07/07 10:41:12;;;;;;;4.55;2.30;;;27.20;82.80;;;;;;4962455;28;20423;-54
2023/07/07 10:43:38;;;;;;;3.53;2.10;;;27.40;82.00;;;;;;4960260;28;20061;-53
2023/07/07 10:46:11;;;;;;;4.80;2.33;;;27.40;80.80;;;;;;4961760;28;20474;-52
2023/07/07 10:48:40;;;;;;;5.13;2.42;;;27.30;80.40;;;;;;4962387;28;20382;-54
2023/07/07 10:51:24;;;;;;;4.10;2.40;;;27.00;81.70;;;;;;4962523;28;20465;-57
2023/07/07 10:54:08;;;;;;;5.68;2.80;;;27.10;82.70;;;;;;4961963;28;20130;-51
2023/07/07 10:56:42;;;;;;;5.72;2.17;;;27.30;84.20;;;;;;4962084;28;20131;-50
2023/07/07 10:59:56;;;;;;;5.50;2.20;;;27.50;81.70;;;;;;4960148;28;20074;-51
2023/07/07 11:02:47;;;;;;;4.25;2.58;;;27.50;82.20;;;;;;4938008;28;20359;-56
2023/07/07 11:05:16;;;;;;;5.95;2.22;;;27.60;81.30;;;;;;4965505;28;20070;-51
2023/07/07 11:08:20;;;;;;;5.40;2.22;;;27.60;80.70;;;;;;4966118;28;20281;-52
2023/07/07 11:11:10;;;;;;;5.10;2.38;;;27.70;80.70;;;;;;4926278;29;20178;-54
2023/07/07 11:14:02;;;;;;;3.75;2.13;;;27.80;80.90;;;;;;4942670;29;20059;-51
2023/07/07 11:16:52;;;;;;;4.22;2.40;;;28.00;78.50;;;;;;4961298;28;20472;-55
2023/07/07 11:19:42;;;;;;;6.18;2.30;;;27.80;79.10;;;;;;4964756;28;20059;-54
2023/07/07 11:22:37;;;;;;;6.13;2.45;;;27.70;78.10;;;;;;4965457;28;20051;-47
2023/07/07 11:25:29;;;;;;;4.47;2.42;;;27.60;78.60;;;;;;4965522;28;20533;-53
2023/07/07 11:28:12;;;;;;;5.07;2.30;;;27.60;80.30;;;;;;4964284;28;20457;-53
2023/07/07 11:30:41;;;;;;;5.57;2.47;;;27.90;80.20;;;;;;4965492;28;20418;-57
2023/07/07 11:33:18;;;;;;;6.63;2.40;;;28.10;80.50;;;;;;4963702;28;20363;-54
2023/07/07 11:36:15;;;;;;;5.10;2.50;;;28.50;80.30;;;;;;4965556;28;20043;-56
2023/07/07 11:39:11;;;;;;;4.70;2.42;;;28.60;78.40;;;;;;4965200;28;20065;-50
2023/07/07 11:41:40;;;;;;;4.45;2.60;;;28.50;78.10;;;;;;4963774;28;20822;-53
2023/07/07 11:44:31;;;;;;;3.63;2.30;;;28.30;78.70;;;;;;4965252;28;20046;-51
2023/07/07 11:47:00;;;;;;;4.30;2.30;;;28.10;78.20;;;;;;4964991;28;20414;-51
2023/07/07 11:49:52;;;;;;;4.50;2.22;;;28.10;78.60;;;;;;4965039;28;20054;-57
2023/07/07 11:52:34;;;;;;;4.15;2.15;;;28.00;79.30;;;;;;4965353;28;20114;-57
2023/07/07 11:55:21;;;;;;;4.57;2.00;;;28.20;79.80;;;;;;4964901;28;20453;-57
2023/07/07 11:57:56;;;;;;;3.28;2.10;;;28.40;78.30;;;;;;4964617;28;20043;-48
2023/07/07 12:00:44;;;;;;;5.07;2.35;;;28.40;75.20;;;;;;4964555;28;20062;-52
2023/07/07 12:03:17;;;;;;;4.22;2.30;;;28.40;73.40;;;;;;4964675;28;20415;-58
2023/07/07 12:05:44;;;;;;;;;;;28.20;76.80;;;;;;4965690;28;20447;-57
2023/07/07 12:08:16;;;;;;;4.20;2.28;;;28.40;76.40;;;;;;4964411;28;19930;-54
2023/07/07 12:10:46;;;;;;;4.55;2.40;;;28.30;72.60;;;;;;4963237;28;20050;-55
2023/07/07 12:13:27;;;;;;;4.75;2.47;;;28.20;74.70;;;;;;4963084;28;20398;-55
2023/07/07 12:16:17;;;;;;;4.93;2.35;;;28.20;75.70;;;;;;4964909;28;20050;-51
2023/07/07 12:18:46;;;;;;;4.05;2.10;;;28.30;74.60;;;;;;4964025;28;20363;-56
2023/07/07 12:21:17;;;;;;;5.10;2.20;;;28.00;75.30;;;;;;4964363;28;20043;-51
2023/07/07 12:24:28;;;;;;;3.90;2.25;;;28.10;75.70;;;;;;4964377;28;20078;-57
2023/07/07 12:27:17;;;;;;;7.43;2.20;;;28.30;76.50;;;;;;4958418;28;20383;-49
2023/07/07 12:29:45;;;;;;;4.65;2.35;;;28.40;74.70;;;;;;4964145;28;20078;-54
2023/07/07 12:32:12;;;;;;;6.38;2.53;;;28.20;75.40;;;;;;4964357;28;20446;-57
2023/07/07 12:34:41;;;;;;;3.42;2.13;;;28.30;75.40;;;;;;4963430;28;20109;-52
2023/07/07 12:37:20;;;;;;;3.63;2.30;;;28.20;75.00;;;;;;4964326;28;20049;-57
2023/07/07 12:39:50;;;;;;;4.75;2.35;;;28.10;74.60;;;;;;4964748;28;20383;-57
2023/07/07 12:42:16;;;;;;;4.72;2.38;;;28.10;75.50;;;;;;4963641;28;20282;-54
2023/07/07 12:44:42;;;;;;;4.07;2.13;;;28.20;76.10;;;;;;4963605;28;20041;-53
2023/07/07 12:47:28;;;;;;;4.07;2.40;;;28.40;71.70;;;;;;4964163;28;20620;-56
2023/07/07 12:49:57;;;;;;;4.05;2.40;;;28.20;73.70;;;;;;4964058;28;20039;-53
2023/07/07 12:52:25;;;;;;;3.13;1.90;;;28.20;73.40;;;;;;4963821;28;20355;-54
2023/07/07 12:54:53;;;;;;;5.22;2.35;;;28.00;73.40;;;;;;4963282;28;20402;-56
2023/07/07 12:57:22;;;;;;;3.90;2.10;;;27.90;73.70;;;;;;4963250;28;20093;-53